Time;durP1;ratioP1;P1;durP2;ratioP2;P2;SDS_P1;SDS_P2;PMS_P1;PMS_P2;Temp;Humidity;BMP_temperature;BMP_pressure;BME280_temperature;BME280_humidity;BME280_pressure;Samples;Min_cycle;Max_cycle;Signal;HPM_P1;HPM_P2
2023/08/31 00:00:51;;;;;;;6.50;2.50;;;;;;;22.32;58.27;94658.72;4970464;28;20235;-73
2023/08/31 00:03:22;;;;;;;4.85;2.50;;;;;;;22.35;58.28;94648.31;4964948;28;20776;-74
2023/08/31 00:05:51;;;;;;;7.13;2.78;;;;;;;22.33;58.33;94653.09;4970001;28;20246;-73
2023/08/31 00:08:30;;;;;;;;;;;;;;;;;;;;;
2023/08/31 00:11:00;;;;;;;7.90;2.60;;;;;;;22.36;57.67;94657.88;4985515;28;20250;-75
2023/08/31 00:13:31;;;;;;;6.57;2.75;;;;;;;22.32;57.85;94646.19;4948714;28;20256;-75
2023/08/31 00:16:11;;;;;;;7.78;2.53;;;;;;;22.37;57.71;94667.50;4959879;28;20219;-75
2023/08/31 00:18:59;;;;;;;7.88;2.63;;;;;;;22.33;57.56;94661.09;4970620;28;20648;-76
2023/08/31 00:21:52;;;;;;;;;;;;;;;;;;;;;
2023/08/31 00:24:51;;;;;;;4.85;2.58;;;;;;;21.85;60.51;94646.78;5014747;28;21211;-77
2023/08/31 00:27:23;;;;;;;5.82;2.65;;;;;;;21.90;60.44;94657.41;5018726;28;20229;-75
2023/08/31 00:29:55;;;;;;;6.82;2.65;;;;;;;22.01;60.28;94653.63;5018165;28;20238;-76
2023/08/31 00:32:35;;;;;;;7.93;2.80;;;;;;;22.06;60.08;94658.91;4996578;28;20230;-74
2023/08/31 00:35:08;;;;;;;7.45;2.60;;;;;;;22.19;59.61;94659.38;5004598;28;20226;-74
2023/08/31 00:37:34;;;;;;;6.68;2.60;;;;;;;22.24;58.61;94664.63;5010107;28;20233;-72
2023/08/31 00:39:59;;;;;;;6.95;2.70;;;;;;;22.25;58.55;94668.91;5034634;28;20441;-74
2023/08/31 00:42:25;;;;;;;5.20;2.50;;;;;;;22.18;58.71;94677.22;5027881;28;20733;-74
2023/08/31 00:44:51;;;;;;;7.68;2.65;;;;;;;22.28;58.11;94674.50;4989205;28;20225;-74
2023/08/31 00:47:17;;;;;;;6.43;2.50;;;;;;;22.28;58.11;94679.03;5019749;28;20241;-74
2023/08/31 00:49:43;;;;;;;4.53;2.22;;;;;;;22.25;58.15;94675.03;5025865;28;20226;-74
2023/08/31 00:52:08;;;;;;;5.78;2.50;;;;;;;22.21;58.33;94673.22;5009433;28;20268;-74
2023/08/31 00:54:34;;;;;;;6.95;2.30;;;;;;;22.17;58.34;94680.16;5007669;28;20233;-73
2023/08/31 00:57:00;;;;;;;4.25;2.40;;;;;;;22.19;58.19;94676.13;5006361;28;20234;-74
2023/08/31 00:59:26;;;;;;;4.78;2.40;;;;;;;22.04;58.64;94678.94;5005953;28;20620;-73
2023/08/31 01:02:04;;;;;;;5.35;2.45;;;;;;;21.79;59.65;94682.50;4995962;28;20628;-73
2023/08/31 01:04:52;;;;;;;6.07;2.28;;;;;;;21.87;59.65;94678.50;5023434;28;20280;-73
2023/08/31 01:07:48;;;;;;;4.82;2.45;;;;;;;21.84;59.84;94681.66;5013553;28;20340;-73
2023/08/31 01:10:19;;;;;;;5.15;2.35;;;;;;;21.95;59.67;94684.03;5024780;28;20773;-75
2023/08/31 01:12:51;;;;;;;5.38;2.50;;;;;;;21.94;59.50;94687.78;5026396;28;20233;-72
2023/08/31 01:15:17;;;;;;;6.45;2.58;;;;;;;21.97;59.78;94681.09;5016757;28;20221;-73
2023/08/31 01:17:46;;;;;;;7.53;2.42;;;;;;;21.88;60.15;94683.53;5012073;28;20723;-73
2023/08/31 01:20:11;;;;;;;4.75;2.40;;;;;;;21.91;60.08;94685.66;5002468;28;20944;-73
2023/08/31 01:22:57;;;;;;;6.20;2.40;;;;;;;21.84;60.31;94689.66;5012599;28;20240;-73
2023/08/31 01:25:23;;;;;;;5.38;2.40;;;;;;;21.94;59.91;94694.97;5001302;28;20237;-73
2023/08/31 01:27:48;;;;;;;5.35;2.40;;;;;;;21.91;60.09;94688.31;4979265;28;20238;-73
2023/08/31 01:30:14;;;;;;;7.60;2.70;;;;;;;21.95;60.02;94691.22;4994390;28;20234;-73
2023/08/31 01:32:46;;;;;;;5.00;2.45;;;;;;;21.89;60.16;94689.66;5009908;28;20232;-73
2023/08/31 01:35:12;;;;;;;7.45;2.80;;;;;;;21.80;60.94;94691.28;4989546;28;20602;-73
2023/08/31 01:37:51;;;;;;;5.47;2.42;;;;;;;21.69;61.51;94685.19;4991521;28;20241;-73
2023/08/31 01:40:27;;;;;;;7.10;2.47;;;;;;;21.59;62.07;94690.56;4995473;28;20235;-73
2023/08/31 01:42:53;;;;;;;6.25;2.47;;;;;;;21.48;62.29;94689.84;5007008;28;20447;-74
2023/08/31 01:45:20;;;;;;;5.90;2.45;;;;;;;21.25;63.44;94701.09;4989575;28;20250;-74
2023/08/31 01:47:46;;;;;;;5.60;2.45;;;;;;;21.31;63.64;94696.53;4996273;28;20239;-74
2023/08/31 01:50:12;;;;;;;7.22;2.75;;;;;;;21.29;63.96;94694.16;4994432;28;20316;-73
2023/08/31 01:52:37;;;;;;;7.70;2.70;;;;;;;21.30;63.94;94693.06;4996364;28;20309;-74
2023/08/31 01:55:05;;;;;;;5.70;2.50;;;;;;;21.16;64.70;94692.06;4975936;28;20227;-73
2023/08/31 01:57:30;;;;;;;9.38;2.72;;;;;;;20.99;65.72;94685.44;5003973;28;20358;-74
2023/08/31 01:59:56;;;;;;;6.00;2.67;;;;;;;20.93;65.68;94700.59;4985196;28;20274;-74
2023/08/31 02:02:21;;;;;;;5.93;2.30;;;;;;;20.97;66.03;94693.66;4990722;28;20233;-74
2023/08/31 02:04:47;;;;;;;5.32;2.40;;;;;;;20.93;66.20;94697.94;5008604;28;20244;-74
2023/08/31 02:07:12;;;;;;;5.53;2.88;;;;;;;20.99;66.20;94710.19;4996079;28;20269;-72
2023/08/31 02:09:38;;;;;;;6.68;2.80;;;;;;;20.87;66.20;94707.00;5025859;28;20308;-75
2023/08/31 02:12:04;;;;;;;6.78;2.95;;;;;;;20.93;66.35;94707.78;5018633;28;20229;-73
2023/08/31 02:14:30;;;;;;;8.35;2.67;;;;;;;20.82;67.36;94715.00;4977315;28;20708;-73
2023/08/31 02:16:55;;;;;;;6.15;2.78;;;;;;;21.02;66.35;94717.59;5013381;28;20260;-73
2023/08/31 02:19:38;;;;;;;5.32;2.70;;;;;;;21.00;65.95;94711.75;5032619;28;20217;-75
2023/08/31 02:22:34;;;;;;;5.68;2.63;;;;;;;20.79;67.16;94695.03;4974979;28;20278;-74
2023/08/31 02:25:23;;;;;;;5.43;2.60;;;;;;;20.78;67.76;94700.63;4939388;28;20242;-74
2023/08/31 02:30:38;;;;;;;8.90;2.65;;;;;;;20.35;69.10;94693.22;5007288;28;20313;-73
2023/08/31 02:33:03;;;;;;;7.82;3.35;;;;;;;20.44;68.94;94691.59;5002382;28;20285;-74
2023/08/31 02:35:29;;;;;;;7.05;2.70;;;;;;;20.54;68.73;94695.03;4981675;28;20807;-72
2023/08/31 02:37:54;;;;;;;8.07;2.80;;;;;;;20.79;67.59;94704.88;5003094;28;20234;-74
2023/08/31 02:40:21;;;;;;;5.60;2.70;;;;;;;20.73;68.38;94709.41;5004991;28;20235;-73
2023/08/31 02:42:49;;;;;;;10.50;2.72;;;;;;;20.72;68.42;94701.69;4974292;28;20725;-73
2023/08/31 02:45:16;;;;;;;8.15;2.63;;;;;;;20.39;69.67;94705.69;4991086;28;20310;-73
2023/08/31 02:47:41;;;;;;;5.80;2.50;;;;;;;20.35;69.78;94709.16;4959868;28;20912;-74
2023/08/31 02:50:07;;;;;;;8.10;2.90;;;;;;;19.98;70.81;94707.47;4978602;28;20230;-73
2023/08/31 02:52:33;;;;;;;6.45;2.60;;;;;;;19.99;71.73;94711.72;5013863;28;20313;-73
2023/08/31 02:54:58;;;;;;;6.97;2.80;;;;;;;19.88;71.59;94711.94;5011639;28;20260;-75
2023/08/31 02:57:24;;;;;;;9.40;2.92;;;;;;;19.96;71.63;94712.25;5016258;28;20303;-75
2023/08/31 02:59:50;;;;;;;6.43;2.90;;;;;;;19.75;72.79;94723.09;4988098;28;20256;-76
2023/08/31 03:02:15;;;;;;;5.28;2.50;;;;;;;19.64;73.12;94722.25;5000062;28;20247;-76
2023/08/31 03:04:41;;;;;;;6.77;2.43;;;;;;;19.82;72.26;94734.25;5015655;28;20934;-77
2023/08/31 03:07:07;;;;;;;7.80;2.70;;;;;;;19.94;71.61;94738.25;5008029;28;20234;-75
2023/08/31 03:09:32;;;;;;;7.00;2.40;;;;;;;20.00;71.39;94734.56;5032938;28;20225;-75
2023/08/31 03:11:58;;;;;;;8.20;2.78;;;;;;;20.09;71.25;94734.84;5018715;28;20230;-75
2023/08/31 03:14:26;;;;;;;7.03;2.85;;;;;;;20.08;71.30;94736.69;4951883;28;20227;-76
2023/08/31 03:17:11;;;;;;;5.68;2.63;;;;;;;19.99;71.65;94735.63;5013921;28;20360;-74
2023/08/31 03:19:59;;;;;;;9.50;2.73;;;;;;;20.05;71.36;94737.25;5009019;28;20249;-76
2023/08/31 03:25:37;;;;;;;8.27;3.70;;;;;;;19.72;72.98;94734.22;5015851;28;20287;-76
2023/08/31 03:28:12;;;;;;;10.63;4.93;;;;;;;19.70;73.22;94734.50;4973819;28;20218;-77
2023/08/31 03:30:40;;;;;;;17.77;7.20;;;;;;;19.70;73.59;94728.38;4988661;28;20229;-76
2023/08/31 03:33:28;;;;;;;22.27;9.55;;;;;;;19.74;73.48;94730.25;5001699;28;20233;-76
2023/08/31 03:36:20;;;;;;;18.70;8.63;;;;;;;19.51;74.42;94722.72;4987858;28;20252;-76
2023/08/31 03:39:20;;;;;;;20.27;9.10;;;;;;;19.37;75.18;94729.53;4995186;28;20260;-77
2023/08/31 03:42:01;;;;;;;23.80;9.83;;;;;;;19.29;75.65;94741.44;5028004;28;20297;-74
2023/08/31 03:44:26;;;;;;;17.67;7.03;;;;;;;19.43;75.44;94753.22;5045456;28;20248;-73
2023/08/31 03:47:12;;;;;;;11.03;5.70;;;;;;;19.32;76.05;94758.72;5043093;28;20225;-74
2023/08/31 03:49:37;;;;;;;12.63;4.80;;;;;;;19.49;75.61;94754.84;4978121;28;20229;-74
2023/08/31 03:52:06;;;;;;;9.30;4.27;;;;;;;19.66;75.15;94757.28;5012815;28;20248;-74
2023/08/31 03:54:31;;;;;;;11.03;3.70;;;;;;;19.58;75.19;94759.66;5037256;28;20233;-74
2023/08/31 03:57:07;;;;;;;7.70;3.70;;;;;;;19.37;76.04;94766.69;5026538;28;20236;-74
2023/08/31 03:59:35;;;;;;;11.07;3.70;;;;;;;19.42;76.04;94769.38;5032137;28;20229;-74
2023/08/31 04:02:14;;;;;;;9.57;3.50;;;;;;;19.33;76.63;94766.41;4958094;28;20829;-76
2023/08/31 04:05:06;;;;;;;9.50;3.80;;;;;;;19.54;75.80;94769.19;4956967;28;20679;-74
2023/08/31 04:07:33;;;;;;;13.43;3.70;;;;;;;19.23;77.17;94778.81;4969762;28;20235;-73
2023/08/31 04:09:59;;;;;;;16.27;4.33;;;;;;;19.13;77.43;94794.69;4972368;28;20246;-73
2023/08/31 04:12:25;;;;;;;10.47;3.67;;;;;;;19.12;78.33;94803.69;4984507;28;20227;-73
2023/08/31 04:14:50;;;;;;;7.57;3.60;;;;;;;18.88;79.03;94808.53;4992243;28;20344;-74
2023/08/31 04:17:16;;;;;;;9.47;3.60;;;;;;;18.90;79.48;94813.59;4994807;28;20238;-73
2023/08/31 04:19:41;;;;;;;8.40;3.80;;;;;;;19.06;78.48;94817.97;4995373;28;20353;-73
2023/08/31 04:22:07;;;;;;;10.00;3.80;;;;;;;19.34;77.23;94817.63;4993514;28;20254;-73
2023/08/31 04:24:33;;;;;;;9.20;3.80;;;;;;;19.43;77.07;94830.22;4997344;28;20287;-74
2023/08/31 04:26:58;;;;;;;6.67;3.20;;;;;;;19.41;77.07;94816.41;5009936;28;20253;-74
2023/08/31 04:29:24;;;;;;;7.43;3.40;;;;;;;19.22;77.89;94820.47;5014834;28;20241;-73
2023/08/31 04:31:50;;;;;;;10.80;3.60;;;;;;;19.31;77.82;94818.16;4991371;28;20790;-74
2023/08/31 04:34:16;;;;;;;9.33;3.10;;;;;;;19.54;78.33;94815.13;4996828;28;20349;-74
2023/08/31 04:36:41;;;;;;;9.43;3.30;;;;;;;19.62;76.63;94816.50;4999203;28;21009;-74
2023/08/31 04:39:07;;;;;;;7.23;3.67;;;;;;;19.67;76.47;94816.53;5004152;28;20626;-73
2023/08/31 04:41:33;;;;;;;7.30;3.30;;;;;;;19.81;75.96;94818.44;5047051;28;20316;-73
2023/08/31 04:43:58;;;;;;;8.77;3.60;;;;;;;19.66;76.37;94820.22;5016741;28;20241;-73
2023/08/31 04:46:25;;;;;;;9.40;3.60;;;;;;;19.57;76.66;94827.09;5014062;28;20233;-72
2023/08/31 04:48:51;;;;;;;10.80;3.87;;;;;;;19.63;76.84;94815.44;5017552;28;20236;-72
2023/08/31 04:51:29;;;;;;;9.23;3.67;;;;;;;19.80;76.32;94826.69;5022496;28;20224;-74
2023/08/31 04:53:55;;;;;;;6.80;3.67;;;;;;;20.10;74.65;94830.28;5021402;28;20236;-74
2023/08/31 04:56:20;;;;;;;7.87;3.67;;;;;;;20.10;74.74;94832.13;5043139;28;20225;-74
2023/08/31 04:58:46;;;;;;;6.23;3.40;;;;;;;19.89;75.54;94825.13;5029738;28;20229;-74
2023/08/31 05:01:11;;;;;;;8.73;3.80;;;;;;;20.00;74.87;94830.22;5007195;28;20228;-73
2023/08/31 05:03:37;;;;;;;9.53;4.00;;;;;;;20.11;74.69;94817.75;5009853;28;20267;-73
2023/08/31 05:06:04;;;;;;;11.47;4.00;;;;;;;20.26;74.24;94825.81;5031541;28;20241;-73
2023/08/31 05:08:30;;;;;;;10.03;4.33;;;;;;;20.22;73.43;94830.06;5046719;28;20260;-74
2023/08/31 05:10:55;;;;;;;10.73;4.30;;;;;;;20.33;73.62;94829.03;5018372;28;20229;-74
2023/08/31 05:13:21;;;;;;;11.00;4.30;;;;;;;20.52;73.08;94830.13;5022417;28;20878;-73
2023/08/31 05:15:46;;;;;;;12.70;4.07;;;;;;;20.59;72.29;94840.50;5027716;28;20240;-74
2023/08/31 05:18:12;;;;;;;11.00;3.80;;;;;;;20.57;72.23;94837.31;5041009;28;20626;-73
2023/08/31 05:20:37;;;;;;;10.63;4.30;;;;;;;20.66;71.18;94841.88;5041771;28;20222;-73
2023/08/31 05:23:03;;;;;;;13.02;4.18;;;;;;;20.64;71.77;94838.69;5022927;28;20230;-74
2023/08/31 05:25:29;;;;;;;8.63;4.23;;;;;;;20.85;70.16;94844.81;5013717;28;20275;-74
2023/08/31 05:28:26;;;;;;;10.40;4.47;;;;;;;20.80;71.12;94839.50;5014634;28;20244;-75
2023/08/31 05:33:57;;;;;;;12.23;4.65;;;;;;;20.90;70.89;94828.06;4939855;28;20721;-74
2023/08/31 05:36:22;;;;;;;13.93;5.27;;;;;;;20.92;70.27;94834.69;4992730;28;20230;-73
2023/08/31 05:38:55;;;;;;;13.87;5.20;;;;;;;21.08;68.94;94844.34;5002283;28;20295;-74
2023/08/31 05:41:24;;;;;;;10.68;4.55;;;;;;;21.17;68.37;94831.28;5016359;28;20291;-74
2023/08/31 05:43:51;;;;;;;11.75;4.40;;;;;;;20.96;69.73;94832.31;5000521;28;20234;-74
2023/08/31 05:46:32;;;;;;;15.60;4.32;;;;;;;21.12;69.67;94837.41;4999370;28;20781;-72
2023/08/31 05:48:58;;;;;;;15.20;4.80;;;;;;;21.06;69.25;94829.69;5012133;28;20796;-76
2023/08/31 05:54:19;;;;;;;17.23;5.05;;;;;;;21.11;69.76;94821.72;4972695;28;20241;-77
2023/08/31 05:57:21;;;;;;;12.63;4.50;;;;;;;21.13;69.45;94832.88;5001330;28;20237;-76
2023/08/31 06:00:03;;;;;;;10.87;4.10;;;;;;;21.15;68.21;94830.75;5018570;28;20737;-76
2023/08/31 06:02:39;;;;;;;15.32;4.30;;;;;;;21.25;67.53;94831.56;5033238;28;20233;-78
2023/08/31 06:05:31;;;;;;;11.25;4.13;;;;;;;21.14;67.98;94832.63;5031694;28;20247;-77
2023/08/31 06:08:06;;;;;;;10.13;4.10;;;;;;;21.14;68.60;94839.78;5025041;28;20268;-77
2023/08/31 06:10:32;;;;;;;10.53;3.83;;;;;;;21.24;68.73;94847.78;5034814;28;20690;-76
2023/08/31 06:13:01;;;;;;;11.67;3.97;;;;;;;21.39;68.82;94856.56;5040462;28;20248;-77
2023/08/31 06:15:49;;;;;;;10.70;3.90;;;;;;;21.35;67.29;94855.50;5022668;28;20309;-77
2023/08/31 06:18:15;;;;;;;16.47;4.40;;;;;;;21.34;66.79;94856.56;5008193;28;20243;-77
2023/08/31 06:20:41;;;;;;;13.07;4.30;;;;;;;21.49;66.45;94861.88;5053831;28;20246;-77
2023/08/31 06:23:06;;;;;;;18.73;4.00;;;;;;;21.43;66.58;94852.31;5048767;28;20312;-76
2023/08/31 06:25:41;;;;;;;15.90;4.10;;;;;;;21.52;66.63;94862.41;5023827;28;20280;-74
2023/08/31 06:28:08;;;;;;;14.80;4.17;;;;;;;21.61;66.62;94861.63;5025009;28;20613;-75
2023/08/31 06:30:46;;;;;;;17.75;4.20;;;;;;;21.66;65.59;94871.47;5026847;28;20232;-76
2023/08/31 06:33:14;;;;;;;17.53;4.30;;;;;;;21.77;65.86;94865.84;5003316;28;20295;-76
2023/08/31 06:36:16;;;;;;;16.77;4.18;;;;;;;21.77;65.14;94875.69;5033224;28;20252;-76
2023/08/31 06:38:45;;;;;;;11.05;3.17;;;;;;;21.83;63.09;94875.41;5025430;28;20272;-76
2023/08/31 06:42:01;;;;;;;9.82;3.55;;;;;;;21.91;63.77;94876.75;5033759;28;20316;-77
2023/08/31 06:44:33;;;;;;;11.80;3.15;;;;;;;21.90;62.85;94883.16;5008875;28;20237;-76
2023/08/31 06:46:58;;;;;;;12.73;3.57;;;;;;;22.03;62.27;94877.25;5035367;28;20738;-76
2023/08/31 06:49:32;;;;;;;9.60;2.92;;;;;;;21.96;61.11;94876.75;5043870;28;20237;-75
2023/08/31 06:51:58;;;;;;;8.35;2.88;;;;;;;21.99;60.32;94879.69;5028205;28;20321;-74
2023/08/31 06:54:47;;;;;;;8.65;2.97;;;;;;;22.03;61.32;94879.91;5048186;28;20267;-75
2023/08/31 06:57:13;;;;;;;13.18;4.10;;;;;;;22.16;61.25;94892.69;5038611;28;20238;-74
2023/08/31 06:59:39;;;;;;;13.25;3.78;;;;;;;22.26;60.80;94884.63;5051250;28;20230;-73
2023/08/31 07:02:04;;;;;;;6.57;2.70;;;;;;;22.29;59.83;94884.09;5050848;28;20263;-73
2023/08/31 07:04:30;;;;;;;11.00;3.00;;;;;;;22.27;59.97;94894.22;5030731;28;20225;-73
2023/08/31 07:06:56;;;;;;;7.60;2.83;;;;;;;22.38;60.71;94887.00;5031377;28;20788;-74
2023/08/31 07:09:21;;;;;;;8.75;2.88;;;;;;;22.47;58.52;94888.03;5030087;28;20224;-72
2023/08/31 07:11:47;;;;;;;7.55;2.88;;;;;;;22.49;59.07;94896.53;5020886;28;20232;-74
2023/08/31 07:14:20;;;;;;;7.88;2.75;;;;;;;22.56;58.85;94894.38;5015272;28;20367;-73
2023/08/31 07:16:48;;;;;;;6.90;2.55;;;;;;;22.54;58.28;94899.19;5003475;28;20265;-76
2023/08/31 07:19:16;;;;;;;7.40;2.67;;;;;;;22.52;58.83;94890.66;5038751;28;20232;-76
2023/08/31 07:21:46;;;;;;;6.35;2.40;;;;;;;22.59;58.12;94897.28;5046169;28;20312;-76
2023/08/31 07:24:15;;;;;;;8.07;2.58;;;;;;;22.65;57.77;94900.75;5036006;28;20256;-79
2023/08/31 07:26:46;;;;;;;8.35;2.70;;;;;;;22.78;58.07;94890.28;5044578;28;20791;-76
2023/08/31 07:29:12;;;;;;;9.90;2.70;;;;;;;22.94;58.05;94898.19;5028180;28;20234;-77
2023/08/31 07:31:45;;;;;;;9.80;2.78;;;;;;;23.01;57.63;94899.47;5043575;28;20378;-76
2023/08/31 07:34:10;;;;;;;11.65;2.83;;;;;;;23.00;56.74;94897.09;5054383;28;20623;-77
2023/08/31 07:36:37;;;;;;;12.10;3.75;;;;;;;23.06;56.93;94894.13;5060740;28;20848;-76
2023/08/31 07:39:05;;;;;;;10.98;3.20;;;;;;;23.26;56.77;94898.53;5033846;28;20252;-77
2023/08/31 07:41:33;;;;;;;7.85;2.72;;;;;;;23.31;56.99;94903.78;5043005;28;20237;-76
2023/08/31 07:43:59;;;;;;;12.95;2.65;;;;;;;23.24;55.96;94901.44;5015567;28;20306;-78
2023/08/31 07:46:36;;;;;;;8.55;2.60;;;;;;;23.37;56.94;94908.06;5015894;28;20234;-76
2023/08/31 07:49:03;;;;;;;10.00;2.83;;;;;;;23.41;57.01;94907.22;5020175;28;20241;-77
2023/08/31 07:51:44;;;;;;;9.43;2.67;;;;;;;23.42;56.33;94908.03;5003017;28;20344;-76
2023/08/31 07:54:20;;;;;;;7.93;2.63;;;;;;;23.40;55.79;94902.19;5007995;28;21718;-76
2023/08/31 07:56:50;;;;;;;6.32;2.72;;;;;;;23.49;55.10;94910.38;5040374;28;20220;-77
2023/08/31 07:59:17;;;;;;;8.18;2.50;;;;;;;23.63;55.54;94911.31;5012530;28;20253;-74
2023/08/31 08:01:42;;;;;;;11.70;2.45;;;;;;;23.61;55.77;94911.63;5028913;28;20260;-74
2023/08/31 08:04:08;;;;;;;6.70;2.50;;;;;;;23.60;55.13;94915.34;5016855;28;20235;-74
2023/08/31 08:06:33;;;;;;;8.63;2.50;;;;;;;23.75;54.80;94909.88;5013151;28;20638;-74
2023/08/31 08:08:59;;;;;;;9.57;2.85;;;;;;;23.83;54.40;94913.81;5007395;28;20695;-73
2023/08/31 08:11:24;;;;;;;6.65;2.58;;;;;;;23.95;54.33;94909.66;4998933;28;20232;-73
2023/08/31 08:13:50;;;;;;;11.43;3.10;;;;;;;24.09;54.47;94907.19;4981511;28;20690;-74
2023/08/31 08:16:15;;;;;;;6.10;2.55;;;;;;;24.08;53.76;94908.25;5022124;28;20224;-74
2023/08/31 08:18:41;;;;;;;5.43;2.47;;;;;;;24.22;53.71;94903.81;5012589;28;20244;-73
2023/08/31 08:21:07;;;;;;;7.22;2.63;;;;;;;24.31;53.54;94904.78;5010895;28;20320;-73
2023/08/31 08:23:32;;;;;;;10.75;2.80;;;;;;;24.31;52.23;94909.34;5010194;28;20252;-74
2023/08/31 08:26:00;;;;;;;6.95;2.97;;;;;;;24.55;51.17;94902.09;5035123;28;20795;-74
2023/08/31 08:28:26;;;;;;;6.72;3.40;;;;;;;24.62;49.21;94905.22;5008350;28;20229;-74
2023/08/31 08:30:52;;;;;;;12.93;3.42;;;;;;;24.79;48.19;94905.53;5025610;28;20267;-75
2023/08/31 08:33:17;;;;;;;9.43;3.47;;;;;;;24.99;46.37;94909.81;5005392;28;20681;-75
2023/08/31 08:35:43;;;;;;;7.85;3.50;;;;;;;24.88;46.45;94898.47;5018850;28;20256;-74
2023/08/31 08:38:09;;;;;;;7.03;3.17;;;;;;;24.91;47.04;94899.78;5021680;28;20294;-75
2023/08/31 08:40:37;;;;;;;7.28;3.30;;;;;;;24.99;47.19;94904.47;5035867;28;20230;-74
2023/08/31 08:43:06;;;;;;;9.27;3.78;;;;;;;25.16;46.68;94904.75;5011608;28;20221;-73
2023/08/31 08:45:40;;;;;;;8.38;3.70;;;;;;;25.20;45.29;94903.88;5028415;28;20225;-74
2023/08/31 08:48:07;;;;;;;7.90;4.10;;;;;;;25.26;42.67;94902.72;5036879;28;20227;-74
2023/08/31 08:50:33;;;;;;;8.40;4.13;;;;;;;25.29;42.47;94886.06;5038140;28;20660;-73
2023/08/31 08:53:02;;;;;;;10.20;4.43;;;;;;;25.48;41.65;94904.84;5048503;28;20236;-74
2023/08/31 08:55:28;;;;;;;11.95;4.47;;;;;;;25.62;40.46;94902.19;5028477;28;20229;-75
2023/08/31 08:57:53;;;;;;;8.25;4.43;;;;;;;25.72;40.61;94893.97;5043229;28;20622;-74
2023/08/31 09:00:19;;;;;;;9.57;4.55;;;;;;;25.80;40.65;94902.13;5012638;28;20232;-73
2023/08/31 09:02:45;;;;;;;7.10;4.47;;;;;;;25.94;39.60;94900.28;5006173;28;20309;-74
2023/08/31 09:05:11;;;;;;;8.82;4.35;;;;;;;25.95;39.00;94904.56;5032011;28;20236;-73
2023/08/31 09:07:36;;;;;;;8.32;4.53;;;;;;;25.98;39.01;94914.66;5014074;28;20226;-74
2023/08/31 09:10:03;;;;;;;8.20;4.38;;;;;;;26.12;39.38;94906.69;5025593;28;20237;-72
2023/08/31 09:12:29;;;;;;;8.43;4.50;;;;;;;26.15;38.70;94908.00;5034000;28;20730;-73
2023/08/31 09:15:01;;;;;;;7.13;4.35;;;;;;;26.21;38.09;94904.09;5003206;28;20238;-74
2023/08/31 09:17:26;;;;;;;13.20;4.90;;;;;;;26.21;38.57;94909.47;5028390;28;20224;-75
2023/08/31 09:20:03;;;;;;;7.05;4.35;;;;;;;26.27;39.12;94905.63;5025605;28;20250;-74
2023/08/31 09:22:29;;;;;;;8.82;4.28;;;;;;;26.23;39.49;94905.41;5017519;28;20225;-73
2023/08/31 09:24:54;;;;;;;8.23;4.40;;;;;;;26.26;39.76;94904.00;5012797;28;20260;-74
2023/08/31 09:27:20;;;;;;;9.35;4.50;;;;;;;26.41;40.07;94903.72;5028904;28;20226;-73
2023/08/31 09:29:46;;;;;;;9.75;4.22;;;;;;;26.58;39.49;94911.97;5033186;28;20249;-73
2023/08/31 09:32:19;;;;;;;7.13;4.30;;;;;;;26.55;39.62;94902.63;5014844;28;20222;-73
2023/08/31 09:34:45;;;;;;;7.65;4.15;;;;;;;26.66;39.24;94908.56;5002082;28;20232;-74
2023/08/31 09:37:10;;;;;;;10.30;4.45;;;;;;;26.86;38.78;94908.19;4997597;28;20257;-75
2023/08/31 09:39:39;;;;;;;8.35;4.13;;;;;;;26.93;38.93;94905.88;5034397;28;20233;-73
2023/08/31 09:42:05;;;;;;;7.07;4.20;;;;;;;26.90;38.31;94895.72;5035888;28;20243;-74
2023/08/31 09:44:33;;;;;;;6.10;3.88;;;;;;;26.79;38.90;94896.25;5023311;28;20228;-74
2023/08/31 09:46:59;;;;;;;7.03;4.30;;;;;;;27.03;38.76;94892.22;5049067;28;20225;-74
2023/08/31 09:49:34;;;;;;;9.20;4.40;;;;;;;26.96;38.36;94909.88;5024784;28;20640;-74
2023/08/31 09:51:59;;;;;;;6.75;4.22;;;;;;;26.85;38.93;94901.22;5048207;28;20278;-74
2023/08/31 09:54:26;;;;;;;8.18;4.35;;;;;;;26.62;38.97;94897.66;5040015;28;20248;-74
2023/08/31 09:56:52;;;;;;;8.15;4.10;;;;;;;26.95;38.94;94898.31;5020105;28;20854;-74
2023/08/31 09:59:26;;;;;;;6.78;4.20;;;;;;;26.98;38.48;94899.59;5033562;28;20762;-74
2023/08/31 10:01:56;;;;;;;6.90;4.13;;;;;;;27.06;38.34;94905.03;5007674;28;20238;-74
2023/08/31 10:04:32;;;;;;;8.77;4.28;;;;;;;26.79;38.31;94902.44;5032227;28;20244;-75
2023/08/31 10:07:00;;;;;;;9.05;4.30;;;;;;;26.92;38.42;94895.41;5059067;28;20248;-74
2023/08/31 10:09:29;;;;;;;8.18;4.18;;;;;;;27.07;36.85;94884.34;5054564;28;20229;-75
2023/08/31 10:11:55;;;;;;;7.68;4.32;;;;;;;27.26;36.16;94898.41;5034627;28;20264;-75
2023/08/31 10:14:20;;;;;;;7.22;4.40;;;;;;;27.34;36.13;94895.00;5038444;28;20249;-74
2023/08/31 10:16:46;;;;;;;6.65;4.20;;;;;;;27.15;35.75;94899.75;5030747;28;20312;-73
2023/08/31 10:19:11;;;;;;;7.18;4.43;;;;;;;27.19;35.87;94898.84;5026989;28;20225;-74
2023/08/31 10:21:38;;;;;;;6.80;4.28;;;;;;;27.38;34.65;94904.09;5024336;28;20228;-73
2023/08/31 10:24:04;;;;;;;7.47;4.50;;;;;;;27.32;34.48;94895.28;5015341;28;20255;-73
2023/08/31 10:26:30;;;;;;;7.90;4.82;;;;;;;27.22;33.85;94895.56;5036181;28;20954;-73
2023/08/31 10:28:57;;;;;;;7.60;4.88;;;;;;;27.44;34.82;94892.13;5019086;28;20278;-74
2023/08/31 10:31:23;;;;;;;7.15;4.47;;;;;;;27.10;34.52;94897.19;5020594;28;20296;-75
2023/08/31 10:34:09;;;;;;;7.30;4.68;;;;;;;26.99;33.92;94895.84;5013533;28;20709;-73
2023/08/31 10:36:44;;;;;;;8.70;4.60;;;;;;;27.08;34.75;94902.06;5016254;28;20287;-74
2023/08/31 10:39:17;;;;;;;7.07;4.25;;;;;;;26.91;35.16;94894.66;5031492;28;20238;-74
2023/08/31 10:41:51;;;;;;;7.05;4.50;;;;;;;26.70;35.07;94893.47;5022237;28;20230;-75
2023/08/31 10:44:20;;;;;;;7.82;4.53;;;;;;;26.64;35.87;94906.19;5012652;28;20221;-74
2023/08/31 10:46:46;;;;;;;6.90;4.15;;;;;;;26.67;36.33;94902.91;5031976;28;20228;-74
2023/08/31 10:49:23;;;;;;;7.13;4.65;;;;;;;26.60;36.56;94910.59;5011482;28;20298;-75
2023/08/31 10:52:18;;;;;;;6.70;4.55;;;;;;;26.52;36.79;94897.06;5025590;28;20253;-73
2023/08/31 10:54:49;;;;;;;7.05;4.57;;;;;;;26.48;37.72;94901.44;5033224;28;20240;-74
2023/08/31 10:57:56;;;;;;;8.90;4.97;;;;;;;26.70;37.25;94899.59;5038805;28;20311;-78
2023/08/31 11:01:03;;;;;;;9.13;4.40;;;;;;;26.96;36.81;94910.66;5041602;28;20770;-79
2023/08/31 11:03:33;;;;;;;7.35;4.15;;;;;;;26.93;37.37;94902.41;5014776;28;20232;-78
2023/08/31 11:06:01;;;;;;;7.00;4.43;;;;;;;26.82;38.31;94906.41;5027287;28;20251;-76
2023/08/31 11:08:27;;;;;;;8.00;4.47;;;;;;;26.62;38.90;94903.03;5039245;28;20225;-75
2023/08/31 11:10:55;;;;;;;7.07;4.00;;;;;;;26.53;38.65;94895.97;5012175;28;20226;-79
2023/08/31 11:13:21;;;;;;;9.80;4.30;;;;;;;26.51;39.38;94901.63;5020787;28;20225;-75
2023/08/31 11:15:46;;;;;;;7.85;4.40;;;;;;;26.48;39.57;94907.59;5022348;28;20236;-75
2023/08/31 11:18:12;;;;;;;7.45;4.03;;;;;;;26.43;39.41;94906.91;5015165;28;20237;-76
2023/08/31 11:20:45;;;;;;;7.03;4.10;;;;;;;26.24;39.65;94906.19;5012137;28;20765;-77
2023/08/31 11:23:11;;;;;;;7.72;4.18;;;;;;;26.30;39.83;94905.00;5013132;28;20236;-79
2023/08/31 11:25:37;;;;;;;6.60;3.92;;;;;;;26.34;40.06;94903.34;5012720;28;20233;-76
2023/08/31 11:28:05;;;;;;;7.65;4.00;;;;;;;26.35;39.74;94897.66;5024754;28;20228;-77
2023/08/31 11:30:43;;;;;;;7.07;3.85;;;;;;;26.38;39.62;94905.13;5018197;28;20740;-76
2023/08/31 11:33:11;;;;;;;7.70;4.28;;;;;;;26.44;39.06;94908.50;5044383;28;20320;-76
2023/08/31 11:35:43;;;;;;;7.85;4.07;;;;;;;26.47;38.27;94911.38;5047779;28;20241;-74
2023/08/31 11:38:11;;;;;;;6.40;4.00;;;;;;;26.52;38.51;94908.59;5022007;28;20221;-74
2023/08/31 11:40:37;;;;;;;6.55;4.00;;;;;;;26.49;38.47;94909.19;5002152;28;20226;-76
2023/08/31 11:43:04;;;;;;;7.82;3.88;;;;;;;26.46;37.95;94903.63;4989033;28;20255;-74
2023/08/31 11:45:29;;;;;;;6.25;3.60;;;;;;;26.47;38.06;94903.31;5025648;28;20398;-73
2023/08/31 11:47:58;;;;;;;7.70;3.70;;;;;;;26.54;39.59;94900.22;5044861;28;20248;-73
2023/08/31 11:50:24;;;;;;;11.48;3.55;;;;;;;26.66;40.45;94906.69;5038424;28;20247;-73
2023/08/31 11:52:50;;;;;;;7.63;3.70;;;;;;;26.96;40.44;94905.28;5017496;28;20243;-73
2023/08/31 11:55:23;;;;;;;7.80;3.40;;;;;;;27.25;39.92;94902.22;5037692;28;20240;-73
2023/08/31 11:57:51;;;;;;;6.95;3.38;;;;;;;27.35;39.53;94908.13;5034757;28;20233;-75
2023/08/31 12:00:30;;;;;;;8.05;3.60;;;;;;;26.97;40.01;94898.81;5034068;28;20726;-74